الصفحة الرئيسية
METAR-TAF:

METAR-TAF

مطار :

مطار دبي الدولي

إمارة دبي, الإمارات العربية المتحدة

دائرة عرض: 25-15-10N, خط طول: 055-21-52E, ارتفاع: 8 متر

مراقبة الطقس الحالي

تاريخ ووقت الإصدار 1ساعة و 4 دقيقة قبل الساعة 02:00UTC
ريح 5 عقدة من الجنوب, الاتجاه يتراوح بين الجنوب/الجنوب الشرقي و الجنوب الغربي
درجة الحرارة 28°درجة مئوية
الرطوبة 74%
ضغط 1014 hPa
الرؤية 10 كم أو أكثر
الغيوم لا تقل 1500 م ولا وجود لمزنة ركامية السحاب الأسود

METAR: OMDB 230200Z 19005KT 150V230 CAVOK 28/23 Q1014 NOSIG

زمن: 07:04 (03:04 UTC)

توقعات

تاريخ ووقت الإصدار 4ساعات و 3 دقيقة قبل الساعة 23:01UTC
التوقعات صالحة من23 الساعة 00 UTC إلى 24 الساعة 06 UTC
ريح 5 عقدة من الجنوب
الرؤية 10 كم أو أكثر
الغيوم لا تقل 1500 م ولا وجود لمزنة ركامية السحاب الأسود
أصبح
من 23 الساعة 05 UTC إلى 23 الساعة 07 UTC
ريح 14 عقدة من الغرب
أصبح
من 23 الساعة 18 UTC إلى 23 الساعة 20 UTC
ريح 5 عقدة من الجنوب/الجنوب الغربي
أصبح
من 24 الساعة 05 UTC إلى 24 الساعة 06 UTC
ريح 15 عقدة من الغرب

TAF: OMDB 222301Z 2300/2406 19005KT CAVOK BECMG 2305/2307 28014KT BECMG 2318/2320 20005KT BECMG 2405/2406 28015KT

أرصاد الطقس والتوقعات من أكثر من 4000 مطار (تقارير الطقس للمطار METAR والتنبؤ بالطقس بالمطارTAF).

المحطات المتاحة هي النقط الصفراء والحمراء على الخريطة.

حرك المؤشر فوق النقطة لمعرفة اسم المحطة.

ثم انقر لمعرفة أرصاد وتوقعات الطقس.

لتغيير الخارطة: اضغط على الأزرار الخضراء مع رمز الصليب الأسود للتكبير. على الزر الأخضر مع شرطة للتصغير، أو على الأسهم الخضراء للخرائط المجاورة.


METAR-TAF: